Time;durP1;ratioP1;P1;durP2;ratioP2;P2;SDS_P1;SDS_P2;PMS_P1;PMS_P2;Temp;Humidity;BMP_temperature;BMP_pressure;BME280_temperature;BME280_humidity;BME280_pressure;Samples;Min_cycle;Max_cycle;Signal;HPM_P1;HPM_P2
2021/07/03 00:00:58;;;;;;;0.93;0.93;;;17.30;99.90;;;;;;5035239;28;20272;-86
2021/07/03 00:03:24;;;;;;;0.63;0.63;;;17.40;99.90;;;;;;5034255;28;20685;-87
2021/07/03 00:05:50;;;;;;;0.40;0.40;;;17.30;99.90;;;;;;5052984;28;20641;-86
2021/07/03 00:08:15;;;;;;;0.33;0.33;;;17.30;99.90;;;;;;5052244;28;20184;-87
2021/07/03 00:10:41;;;;;;;0.67;0.63;;;17.30;99.90;;;;;;5034877;28;20612;-87
2021/07/03 00:13:07;;;;;;;0.40;0.40;;;17.20;99.90;;;;;;5034705;28;20295;-87
2021/07/03 00:15:33;;;;;;;0.63;0.63;;;17.30;99.90;;;;;;5037152;28;20232;-88
2021/07/03 00:17:59;;;;;;;0.23;0.23;;;17.20;99.90;;;;;;5041915;28;20189;-87
2021/07/03 00:20:26;;;;;;;0.40;0.40;;;17.20;99.90;;;;;;5052404;28;20184;-86
2021/07/03 00:22:53;;;;;;;0.80;0.80;;;17.20;99.90;;;;;;5051279;28;20205;-87
2021/07/03 00:25:19;;;;;;;0.80;0.40;;;17.10;99.90;;;;;;5051692;28;20189;-87
2021/07/03 00:27:44;;;;;;;0.50;0.50;;;17.10;99.90;;;;;;5052336;28;20195;-87
2021/07/03 00:30:11;;;;;;;1.47;0.60;;;17.20;99.90;;;;;;5034645;28;20303;-87
2021/07/03 00:32:38;;;;;;;0.83;0.67;;;17.10;99.90;;;;;;5052411;28;20204;-87
2021/07/03 00:35:06;;;;;;;0.77;0.60;;;17.10;99.90;;;;;;5034599;28;20185;-87
2021/07/03 00:37:31;;;;;;;0.30;0.30;;;17.10;99.90;;;;;;5050613;28;20561;-87
2021/07/03 00:39:57;;;;;;;0.57;0.47;;;17.10;99.90;;;;;;5034582;28;20199;-86
2021/07/03 00:42:23;;;;;;;0.53;0.53;;;17.00;99.90;;;;;;5034498;28;20210;-87
2021/07/03 00:44:49;;;;;;;0.73;0.53;;;16.70;99.90;;;;;;5034679;28;20185;-87
2021/07/03 00:47:15;;;;;;;0.87;0.87;;;16.50;99.90;;;;;;5052189;28;20243;-86
2021/07/03 00:49:41;;;;;;;1.30;0.50;;;16.50;99.90;;;;;;5034397;28;20204;-86
2021/07/03 00:52:10;;;;;;;2.80;0.80;;;16.60;99.90;;;;;;5052212;28;20185;-86
2021/07/03 00:54:41;;;;;;;1.07;1.07;;;16.60;99.90;;;;;;5034436;28;20630;-86
2021/07/03 00:57:08;;;;;;;0.70;0.70;;;16.70;99.90;;;;;;5038349;28;20192;-87
2021/07/03 00:59:45;;;;;;;0.97;0.90;;;16.80;99.90;;;;;;5052032;28;20318;-86
2021/07/03 01:02:15;;;;;;;0.37;0.37;;;16.80;99.90;;;;;;5059902;28;20281;-86
2021/07/03 01:04:41;;;;;;;0.50;0.17;;;16.80;99.90;;;;;;5034025;28;20240;-87
2021/07/03 01:07:09;;;;;;;0.57;0.53;;;16.70;99.90;;;;;;5034253;28;20192;-87
2021/07/03 01:09:35;;;;;;;0.70;0.70;;;16.70;99.90;;;;;;5051895;28;20287;-87
2021/07/03 01:12:02;;;;;;;0.73;0.67;;;16.80;99.90;;;;;;5034279;28;20187;-87
2021/07/03 01:14:28;;;;;;;0.50;0.50;;;16.60;99.90;;;;;;5037606;28;20192;-87
2021/07/03 01:16:53;;;;;;;1.20;1.10;;;16.40;99.90;;;;;;5051931;28;20556;-87
2021/07/03 01:19:20;;;;;;;0.20;0.20;;;16.40;99.90;;;;;;5050728;28;20608;-87
2021/07/03 01:21:51;;;;;;;0.63;0.63;;;16.50;99.90;;;;;;5030999;28;20194;-86
2021/07/03 01:24:17;;;;;;;0.80;0.30;;;16.60;99.90;;;;;;5063777;28;20216;-87
2021/07/03 01:26:47;;;;;;;0.30;0.30;;;16.50;99.90;;;;;;5033587;28;20188;-87
2021/07/03 01:29:13;;;;;;;0.77;0.77;;;16.50;99.90;;;;;;5034149;28;20208;-87
2021/07/03 01:31:43;;;;;;;0.60;0.60;;;16.50;99.90;;;;;;5039639;28;20656;-86
2021/07/03 01:37:31;;;;;;;0.60;0.40;;;16.60;99.90;;;;;;5046448;28;20176;-87
2021/07/03 01:39:57;;;;;;;0.53;0.40;;;16.60;99.90;;;;;;5033778;28;20188;-87
2021/07/03 01:42:22;;;;;;;0.60;0.60;;;16.60;99.90;;;;;;5047869;28;20350;-86
2021/07/03 01:44:49;;;;;;;0.33;0.33;;;16.20;99.90;;;;;;5048045;28;20657;-87
2021/07/03 01:47:15;;;;;;;0.50;0.50;;;16.00;99.90;;;;;;5031737;28;20199;-86
2021/07/03 01:49:43;;;;;;;0.70;0.67;;;15.90;99.90;;;;;;5035586;28;20592;-87
2021/07/03 01:52:09;;;;;;;0.20;0.20;;;15.80;99.90;;;;;;5055125;28;20195;-86
2021/07/03 01:54:36;;;;;;;1.20;0.80;;;15.80;99.90;;;;;;5055264;28;21819;-86
2021/07/03 01:57:02;;;;;;;0.30;0.30;;;16.00;99.90;;;;;;5037445;28;20559;-86
2021/07/03 01:59:30;;;;;;;0.57;0.57;;;16.20;99.90;;;;;;5049790;28;20267;-88
2021/07/03 02:01:57;;;;;;;0.67;0.43;;;16.30;99.90;;;;;;5048610;28;20644;-87
2021/07/03 02:04:23;;;;;;;0.43;0.43;;;16.30;99.90;;;;;;5037883;28;20188;-86
2021/07/03 02:06:49;;;;;;;0.23;0.23;;;16.30;99.90;;;;;;5038721;28;20191;-86
2021/07/03 02:09:19;;;;;;;0.63;0.63;;;16.20;99.90;;;;;;5053800;28;20212;-86
2021/07/03 02:11:45;;;;;;;0.50;0.40;;;16.10;99.90;;;;;;5055524;28;20185;-86
2021/07/03 02:14:11;;;;;;;0.70;0.47;;;15.80;99.90;;;;;;5065092;28;20580;-87
2021/07/03 02:16:37;;;;;;;0.50;0.50;;;15.70;99.90;;;;;;5052284;28;20325;-87
2021/07/03 02:19:04;;;;;;;1.70;1.00;;;15.60;99.90;;;;;;5053060;28;20204;-86
2021/07/03 02:21:32;;;;;;;0.30;0.30;;;15.50;99.90;;;;;;5053652;28;20196;-86
2021/07/03 02:23:58;;;;;;;1.07;0.40;;;15.40;99.90;;;;;;5053855;28;20688;-86
2021/07/03 02:26:25;;;;;;;3.87;0.63;;;15.40;99.90;;;;;;5031055;28;20241;-86
2021/07/03 02:28:51;;;;;;;0.50;0.50;;;15.30;99.90;;;;;;5036002;28;20214;-87
2021/07/03 02:31:18;;;;;;;1.60;0.90;;;15.20;99.90;;;;;;5036948;28;20278;-86
2021/07/03 02:33:44;;;;;;;0.30;0.30;;;15.20;99.90;;;;;;5036140;28;20214;-87
2021/07/03 02:36:11;;;;;;;0.50;0.50;;;15.20;99.90;;;;;;5054427;28;20191;-86
2021/07/03 02:38:37;;;;;;;0.23;0.23;;;15.40;99.90;;;;;;5036282;28;20190;-86
2021/07/03 02:41:03;;;;;;;0.20;0.20;;;15.30;99.90;;;;;;5036573;28;20681;-84
2021/07/03 02:44:04;;;;;;;0.50;0.50;;;15.30;99.90;;;;;;5053887;28;20243;-87
2021/07/03 02:46:29;;;;;;;0.30;0.30;;;15.30;99.90;;;;;;5035925;28;20670;-86
2021/07/03 02:48:55;;;;;;;0.47;0.47;;;15.30;99.90;;;;;;5037942;28;20208;-86
2021/07/03 02:51:21;;;;;;;0.30;0.30;;;15.30;99.90;;;;;;5062550;28;20220;-87
2021/07/03 02:53:46;;;;;;;0.73;0.73;;;15.50;99.90;;;;;;5047103;28;20208;-86
2021/07/03 02:56:12;;;;;;;0.67;0.67;;;15.50;99.90;;;;;;5061893;28;20607;-86
2021/07/03 02:58:38;;;;;;;0.80;0.80;;;15.50;99.90;;;;;;5035235;28;20207;-86
2021/07/03 03:01:03;;;;;;;0.87;0.87;;;15.30;99.90;;;;;;5051206;28;20191;-88
2021/07/03 03:03:30;;;;;;;0.63;0.53;;;15.10;99.90;;;;;;5033805;28;20269;-86
2021/07/03 03:05:56;;;;;;;0.20;0.20;;;15.10;99.90;;;;;;5035909;28;20201;-87
2021/07/03 03:08:22;;;;;;;0.73;0.73;;;15.00;99.90;;;;;;5069055;28;20593;-86
2021/07/03 03:10:47;;;;;;;0.73;0.73;;;14.90;99.90;;;;;;5035866;28;20182;-88
2021/07/03 03:13:13;;;;;;;0.47;0.47;;;14.90;99.90;;;;;;5035437;28;20287;-86
2021/07/03 03:15:39;;;;;;;1.20;0.63;;;15.10;99.90;;;;;;5035737;28;20292;-86
2021/07/03 03:18:04;;;;;;;0.40;0.40;;;15.10;99.90;;;;;;5035242;28;20236;-86
2021/07/03 03:20:30;;;;;;;0.50;0.50;;;15.20;99.90;;;;;;5035219;28;20650;-86
2021/07/03 03:22:56;;;;;;;0.40;0.40;;;15.30;99.90;;;;;;5054817;28;20213;-87
2021/07/03 03:25:21;;;;;;;0.50;0.50;;;15.50;99.90;;;;;;5057317;28;20200;-86
2021/07/03 03:27:47;;;;;;;0.43;0.43;;;15.60;99.90;;;;;;5037093;28;20184;-86
2021/07/03 03:30:13;;;;;;;0.80;0.80;;;15.70;99.90;;;;;;5052162;28;20217;-86
2021/07/03 03:32:39;;;;;;;0.20;0.20;;;15.80;99.90;;;;;;5052759;28;20197;-86
2021/07/03 03:35:06;;;;;;;0.47;0.47;;;16.00;99.90;;;;;;5040543;28;20522;-86
2021/07/03 03:37:32;;;;;;;0.50;0.50;;;16.00;99.90;;;;;;5054748;28;20553;-86
2021/07/03 03:39:57;;;;;;;0.30;0.30;;;16.00;99.90;;;;;;5035813;28;20187;-86
2021/07/03 03:42:23;;;;;;;0.63;0.63;;;16.20;99.90;;;;;;5053053;28;20212;-87
2021/07/03 03:44:48;;;;;;;0.40;0.40;;;16.90;99.90;;;;;;5053231;28;20284;-87
2021/07/03 03:47:14;;;;;;;0.80;0.53;;;17.50;99.90;;;;;;5061862;28;20534;-86
2021/07/03 03:49:40;;;;;;;0.80;0.80;;;18.10;99.90;;;;;;5031113;28;20202;-86
2021/07/03 03:52:06;;;;;;;0.20;0.20;;;18.50;99.90;;;;;;5033297;28;20234;-86
2021/07/03 03:54:31;;;;;;;0.43;0.43;;;18.90;99.90;;;;;;5035202;28;20185;-86
2021/07/03 03:59:41;;;;;;;0.57;0.57;;;19.80;99.90;;;;;;5053055;28;20188;-87
2021/07/03 04:02:07;;;;;;;0.77;0.60;;;20.20;99.90;;;;;;5052475;28;20173;-87
2021/07/03 04:04:32;;;;;;;1.03;0.93;;;20.70;99.90;;;;;;5034542;28;20185;-86
2021/07/03 04:06:58;;;;;;;0.33;0.33;;;21.00;99.90;;;;;;5034791;28;20192;-88
2021/07/03 04:09:23;;;;;;;0.77;0.77;;;21.20;99.90;;;;;;5051394;28;20358;-87
2021/07/03 04:11:49;;;;;;;0.40;0.40;;;21.40;99.90;;;;;;5052751;28;20679;-87
2021/07/03 04:14:15;;;;;;;0.40;0.40;;;21.70;99.90;;;;;;5066709;28;20210;-87
2021/07/03 04:16:40;;;;;;;0.60;0.60;;;20.30;99.90;;;;;;5034499;28;20204;-87
2021/07/03 04:19:06;;;;;;;2.77;0.63;;;19.20;99.90;;;;;;5034412;28;20272;-87
2021/07/03 04:21:32;;;;;;;1.20;1.13;;;19.00;99.90;;;;;;5044569;28;20179;-86
2021/07/03 04:23:57;;;;;;;1.50;0.20;;;19.20;99.90;;;;;;5044229;28;20197;-87
2021/07/03 04:26:23;;;;;;;0.53;0.53;;;18.70;99.90;;;;;;5035125;28;20272;-86
2021/07/03 04:28:49;;;;;;;0.40;0.40;;;18.90;99.90;;;;;;5044721;28;20209;-86
2021/07/03 04:31:15;;;;;;;0.50;0.50;;;19.30;99.90;;;;;;5035415;28;20610;-86
2021/07/03 04:33:40;;;;;;;0.60;0.60;;;18.90;99.90;;;;;;5035180;28;22363;-87
2021/07/03 04:36:06;;;;;;;0.53;0.53;;;18.30;99.90;;;;;;5052812;28;22250;-86
2021/07/03 04:38:32;;;;;;;0.80;0.80;;;18.10;99.90;;;;;;5059412;28;20208;-86
2021/07/03 04:40:57;;;;;;;1.50;1.40;;;17.70;99.90;;;;;;5053310;28;20188;-87
2021/07/03 04:43:23;;;;;;;1.10;0.50;;;17.70;99.90;;;;;;5051493;28;20201;-87
2021/07/03 04:45:48;;;;;;;0.53;0.53;;;18.00;99.90;;;;;;5052903;28;20174;-87
2021/07/03 04:48:14;;;;;;;0.60;0.60;;;18.10;99.90;;;;;;5034362;28;20185;-87
2021/07/03 04:50:40;;;;;;;1.03;0.73;;;18.20;99.90;;;;;;5035037;28;20209;-87
2021/07/03 04:53:05;;;;;;;0.43;0.33;;;17.80;99.90;;;;;;5052927;28;20221;-86
2021/07/03 04:55:31;;;;;;;0.80;0.73;;;17.20;99.90;;;;;;5052660;28;20188;-87
2021/07/03 04:57:57;;;;;;;0.67;0.67;;;17.00;99.90;;;;;;5052277;28;20185;-87
2021/07/03 05:00:23;;;;;;;0.40;0.40;;;16.80;99.90;;;;;;5034631;28;20268;-87
2021/07/03 05:02:48;;;;;;;1.17;0.73;;;16.60;99.90;;;;;;5040448;28;20624;-86
2021/07/03 05:05:14;;;;;;;1.20;0.70;;;16.70;99.90;;;;;;5052623;28;20195;-86
2021/07/03 05:07:43;;;;;;;0.83;0.80;;;16.70;99.90;;;;;;5035053;28;20189;-86
2021/07/03 05:10:10;;;;;;;2.70;0.50;;;16.70;99.90;;;;;;5034513;28;20202;-87
2021/07/03 05:12:35;;;;;;;2.00;0.87;;;16.80;99.90;;;;;;5052365;28;20284;-89
2021/07/03 05:15:07;;;;;;;4.47;0.50;;;16.80;99.90;;;;;;5040505;28;20219;-87
2021/07/03 05:17:33;;;;;;;0.43;0.33;;;16.90;99.90;;;;;;5052019;28;20197;-87
2021/07/03 05:19:58;;;;;;;0.87;0.70;;;17.40;99.90;;;;;;5034603;28;20284;-86
2021/07/03 05:22:24;;;;;;;0.40;0.40;;;17.70;99.90;;;;;;5052003;28;20209;-87
2021/07/03 05:24:50;;;;;;;1.20;0.57;;;18.10;99.90;;;;;;5053771;28;20177;-87
2021/07/03 05:27:16;;;;;;;0.73;0.73;;;18.30;99.90;;;;;;5056295;28;20190;-86
2021/07/03 05:29:41;;;;;;;0.93;0.93;;;18.50;99.90;;;;;;5055853;28;20689;-86
2021/07/03 05:32:07;;;;;;;0.30;0.30;;;18.70;99.90;;;;;;5056152;28;20269;-86
2021/07/03 05:34:34;;;;;;;0.77;0.77;;;18.80;99.90;;;;;;5055920;28;20178;-86
2021/07/03 05:36:59;;;;;;;0.70;0.70;;;18.80;99.90;;;;;;5038022;28;20208;-88
2021/07/03 05:39:25;;;;;;;2.30;0.70;;;18.80;99.90;;;;;;5055779;28;20239;-87
2021/07/03 05:41:51;;;;;;;0.40;0.40;;;18.80;99.90;;;;;;5055866;28;20182;-86
2021/07/03 05:44:17;;;;;;;0.90;0.90;;;18.90;99.90;;;;;;5055553;28;20205;-87
2021/07/03 05:46:42;;;;;;;0.47;0.47;;;19.00;99.90;;;;;;5037395;28;20181;-87
2021/07/03 05:49:08;;;;;;;0.60;0.60;;;19.00;99.90;;;;;;5037669;28;20941;-87
2021/07/03 05:51:35;;;;;;;0.70;0.70;;;19.10;99.90;;;;;;5037890;28;20186;-86
2021/07/03 05:54:01;;;;;;;1.13;1.10;;;19.10;99.90;;;;;;5037964;28;20205;-84
2021/07/03 05:56:26;;;;;;;3.53;1.40;;;19.30;99.90;;;;;;5057491;28;20193;-85
2021/07/03 05:58:53;;;;;;;0.50;0.47;;;19.20;99.90;;;;;;5052167;28;20201;-87
2021/07/03 06:01:29;;;;;;;4.40;0.63;;;19.20;99.90;;;;;;5062502;28;20182;-86
2021/07/03 06:03:54;;;;;;;1.23;0.80;;;19.30;99.90;;;;;;5055064;28;20212;-86
2021/07/03 06:06:20;;;;;;;0.80;0.80;;;19.40;99.90;;;;;;5055215;28;20196;-87
2021/07/03 06:08:52;;;;;;;2.20;0.90;;;19.50;99.90;;;;;;5034394;28;20186;-86
2021/07/03 06:11:17;;;;;;;0.50;0.50;;;19.60;99.90;;;;;;5037254;28;20651;-85
2021/07/03 06:14:37;;;;;;;2.70;2.27;;;19.70;99.90;;;;;;5036778;28;20197;-85
2021/07/03 06:17:03;;;;;;;0.53;0.53;;;19.70;99.90;;;;;;5053484;28;20567;-86
2021/07/03 06:19:29;;;;;;;0.47;0.47;;;19.80;99.90;;;;;;5037277;28;20173;-85
2021/07/03 06:21:55;;;;;;;1.13;0.90;;;19.80;99.90;;;;;;5055303;28;20180;-86
2021/07/03 06:24:21;;;;;;;0.87;0.77;;;19.90;99.90;;;;;;5035010;28;20186;-86
2021/07/03 06:26:46;;;;;;;3.63;0.70;;;20.10;99.90;;;;;;5038166;28;20204;-85
2021/07/03 06:29:12;;;;;;;0.67;0.63;;;20.10;99.90;;;;;;5054983;28;20301;-86
2021/07/03 06:31:37;;;;;;;0.30;0.30;;;20.10;99.90;;;;;;5055838;28;20178;-86
2021/07/03 06:34:03;;;;;;;0.83;0.83;;;20.30;99.90;;;;;;5037147;28;20209;-86
2021/07/03 06:36:30;;;;;;;1.70;0.50;;;20.40;99.90;;;;;;5037940;28;20182;-87
2021/07/03 06:38:55;;;;;;;2.40;0.90;;;20.50;99.90;;;;;;5036879;28;20189;-86
2021/07/03 06:41:22;;;;;;;0.93;0.90;;;20.60;99.90;;;;;;5038860;28;20190;-87
2021/07/03 06:43:48;;;;;;;0.80;0.80;;;20.80;99.90;;;;;;5043256;28;20754;-88
2021/07/03 06:46:13;;;;;;;0.90;0.90;;;20.90;99.90;;;;;;5036338;28;20213;-87
2021/07/03 06:48:39;;;;;;;0.70;0.70;;;20.90;99.90;;;;;;5054304;28;20273;-87
2021/07/03 06:51:07;;;;;;;1.00;1.00;;;20.50;99.90;;;;;;5035792;28;20265;-87
2021/07/03 06:53:42;;;;;;;7.07;1.63;;;20.50;99.90;;;;;;5054101;28;20194;-87
2021/07/03 06:56:12;;;;;;;0.67;0.67;;;20.30;99.90;;;;;;5056334;28;20613;-87
2021/07/03 06:58:39;;;;;;;1.20;0.97;;;20.50;99.90;;;;;;5036227;28;20587;-87
2021/07/03 07:01:04;;;;;;;1.23;1.13;;;20.80;99.90;;;;;;5040003;28;20212;-86
2021/07/03 07:07:00;;;;;;;0.57;0.57;;;21.20;99.90;;;;;;5053983;28;20185;-87
2021/07/03 07:09:27;;;;;;;1.20;0.70;;;21.40;99.90;;;;;;5055237;28;20567;-87
2021/07/03 07:11:56;;;;;;;0.57;0.57;;;21.30;99.90;;;;;;5035782;28;20213;-89
2021/07/03 07:14:22;;;;;;;1.73;0.70;;;21.50;99.90;;;;;;5052685;28;20193;-88
2021/07/03 07:16:48;;;;;;;0.57;0.57;;;21.60;99.90;;;;;;5058306;28;20185;-87
2021/07/03 07:19:14;;;;;;;1.50;1.17;;;21.70;99.90;;;;;;5035809;28;20192;-87
2021/07/03 07:21:39;;;;;;;1.77;0.90;;;21.80;99.90;;;;;;5036148;28;20193;-87
2021/07/03 07:24:05;;;;;;;0.93;0.90;;;22.10;99.90;;;;;;5035977;28;20209;-87
2021/07/03 07:26:32;;;;;;;0.40;0.40;;;22.20;99.90;;;;;;5053720;28;20720;-88
2021/07/03 07:28:57;;;;;;;0.77;0.70;;;21.90;99.90;;;;;;5052197;28;20206;-87
2021/07/03 07:31:23;;;;;;;0.87;0.87;;;22.10;99.90;;;;;;5035918;28;20192;-87
2021/07/03 07:33:49;;;;;;;1.03;0.50;;;22.40;99.90;;;;;;5035670;28;20212;-87
2021/07/03 07:36:16;;;;;;;1.30;1.20;;;22.60;99.90;;;;;;5035246;28;20273;-87
2021/07/03 07:38:41;;;;;;;0.87;0.87;;;22.60;99.90;;;;;;5030043;28;20181;-87
2021/07/03 07:41:07;;;;;;;0.87;0.70;;;22.80;99.90;;;;;;5053589;28;20173;-87
2021/07/03 07:43:33;;;;;;;1.50;1.40;;;23.00;99.90;;;;;;5035562;28;20585;-87
2021/07/03 07:45:59;;;;;;;1.10;1.00;;;22.80;99.90;;;;;;5035523;28;20258;-87
2021/07/03 07:48:29;;;;;;;1.70;0.70;;;23.00;99.90;;;;;;5035475;28;20189;-87
2021/07/03 07:50:57;;;;;;;0.97;0.90;;;23.30;99.90;;;;;;5035382;28;20214;-87
2021/07/03 07:53:23;;;;;;;3.60;1.40;;;23.20;99.90;;;;;;5035320;28;20206;-87
2021/07/03 07:55:49;;;;;;;0.77;0.77;;;22.80;99.90;;;;;;5034774;28;20185;-88
2021/07/03 07:58:15;;;;;;;0.70;0.70;;;22.70;99.90;;;;;;5035647;28;20182;-87
2021/07/03 08:00:41;;;;;;;0.40;0.40;;;22.90;99.90;;;;;;5035002;28;20661;-87
2021/07/03 08:03:23;;;;;;;0.37;0.37;;;23.30;99.90;;;;;;5035024;28;20288;-87
2021/07/03 08:05:49;;;;;;;0.70;0.70;;;23.60;99.90;;;;;;5052642;28;20661;-88
2021/07/03 08:08:14;;;;;;;2.33;0.60;;;23.80;99.90;;;;;;5034545;28;20221;-88
2021/07/03 08:10:42;;;;;;;2.10;1.43;;;23.90;99.90;;;;;;5034677;28;20202;-87
2021/07/03 08:13:08;;;;;;;2.10;0.70;;;24.00;99.90;;;;;;5034614;28;20275;-87
2021/07/03 08:15:35;;;;;;;2.73;1.53;;;24.00;99.90;;;;;;5052453;28;20239;-87
2021/07/03 08:18:02;;;;;;;0.80;0.80;;;23.70;99.90;;;;;;5052332;28;20241;-86
2021/07/03 08:20:28;;;;;;;1.03;0.63;;;23.70;99.90;;;;;;5034899;28;20186;-86
2021/07/03 08:22:55;;;;;;;0.87;0.87;;;23.50;99.90;;;;;;5052568;28;20689;-87
2021/07/03 08:25:22;;;;;;;1.30;1.20;;;23.60;99.90;;;;;;5052589;28;20190;-87
2021/07/03 08:27:50;;;;;;;3.13;1.33;;;23.60;99.90;;;;;;5034547;28;20284;-87
2021/07/03 08:30:18;;;;;;;1.20;1.10;;;23.70;99.90;;;;;;5034658;28;20706;-87
2021/07/03 08:32:51;;;;;;;1.50;0.83;;;24.00;99.90;;;;;;5051669;28;20677;-87
2021/07/03 08:35:17;;;;;;;1.33;1.00;;;24.10;99.90;;;;;;5052269;28;20186;-88
2021/07/03 08:37:42;;;;;;;1.07;0.70;;;24.30;99.90;;;;;;5033514;28;20559;-87
2021/07/03 08:40:10;;;;;;;1.20;1.10;;;24.20;99.90;;;;;;5040110;28;20618;-86
2021/07/03 08:42:36;;;;;;;1.17;1.07;;;24.00;99.90;;;;;;5040120;28;20273;-87
2021/07/03 08:45:03;;;;;;;4.10;1.57;;;23.90;99.90;;;;;;5042994;28;20250;-86
2021/07/03 08:47:29;;;;;;;0.70;0.70;;;24.00;99.90;;;;;;5036843;28;20186;-86
2021/07/03 08:50:00;;;;;;;1.37;1.27;;;24.40;99.90;;;;;;5051957;28;20264;-87
2021/07/03 08:52:27;;;;;;;0.90;0.90;;;23.90;99.90;;;;;;5040323;28;20228;-86
2021/07/03 08:55:16;;;;;;;2.40;0.67;;;23.70;99.90;;;;;;5034482;28;20184;-86
2021/07/03 08:58:08;;;;;;;1.27;1.17;;;24.30;99.90;;;;;;5029477;28;20276;-86
2021/07/03 09:00:40;;;;;;;0.93;0.93;;;24.40;99.90;;;;;;5053196;28;20243;-86
2021/07/03 09:03:26;;;;;;;1.63;0.97;;;24.90;99.90;;;;;;5054283;28;20228;-87
2021/07/03 09:05:55;;;;;;;1.13;0.73;;;24.80;99.90;;;;;;5036805;28;20193;-87
2021/07/03 09:08:53;;;;;;;1.20;1.10;;;24.90;99.90;;;;;;5053396;28;20186;-87
2021/07/03 09:11:19;;;;;;;1.73;1.40;;;25.40;99.90;;;;;;5053370;28;20230;-86
2021/07/03 09:13:45;;;;;;;4.13;1.03;;;25.70;99.90;;;;;;5038277;28;20307;-87
2021/07/03 09:16:10;;;;;;;2.10;1.27;;;25.00;99.90;;;;;;5055818;28;20673;-86
2021/07/03 09:18:36;;;;;;;6.57;1.00;;;24.60;99.90;;;;;;5037260;28;20189;-87
2021/07/03 09:21:04;;;;;;;0.77;0.70;;;25.20;99.90;;;;;;5038015;28;20194;-86
2021/07/03 09:23:40;;;;;;;0.97;0.90;;;25.50;99.90;;;;;;5036936;28;20681;-86
2021/07/03 09:26:11;;;;;;;0.50;0.50;;;25.20;99.90;;;;;;5040128;28;20189;-87
2021/07/03 09:28:43;;;;;;;1.57;1.20;;;25.20;99.90;;;;;;5073963;28;20235;-86
2021/07/03 09:31:13;;;;;;;1.80;1.70;;;25.40;99.90;;;;;;5041840;28;20212;-85
2021/07/03 09:33:44;;;;;;;0.73;0.73;;;25.40;99.90;;;;;;5046749;28;20210;-88
2021/07/03 09:36:12;;;;;;;2.50;1.10;;;25.80;99.90;;;;;;5062063;28;20182;-85
2021/07/03 09:38:41;;;;;;;0.97;0.97;;;26.10;99.90;;;;;;5049848;28;20188;-86
2021/07/03 09:41:24;;;;;;;1.80;0.97;;;26.20;99.90;;;;;;5055311;28;20328;-86
2021/07/03 09:43:50;;;;;;;2.20;1.37;;;26.20;99.90;;;;;;5053604;28;20202;-86
2021/07/03 09:46:36;;;;;;;2.97;0.77;;;26.30;99.90;;;;;;5039251;28;20190;-86
2021/07/03 09:49:05;;;;;;;1.43;1.13;;;26.70;99.90;;;;;;5053520;28;20216;-88
2021/07/03 09:51:43;;;;;;;2.27;1.13;;;26.80;99.90;;;;;;5030666;28;20190;-85
2021/07/03 09:54:10;;;;;;;1.37;1.07;;;26.70;99.90;;;;;;5054801;28;20641;-85
2021/07/03 09:56:37;;;;;;;1.10;1.00;;;26.80;99.90;;;;;;5047539;28;20185;-86
2021/07/03 09:59:03;;;;;;;0.70;0.70;;;26.70;99.90;;;;;;5055942;28;20192;-86
2021/07/03 10:01:29;;;;;;;0.90;0.90;;;26.60;99.90;;;;;;5054330;28;20690;-86
2021/07/03 10:03:56;;;;;;;1.10;1.00;;;26.90;99.90;;;;;;5051653;28;20212;-86
2021/07/03 10:06:43;;;;;;;0.90;0.80;;;27.00;99.90;;;;;;5056534;28;20756;-87
2021/07/03 10:09:19;;;;;;;0.97;0.70;;;27.20;99.90;;;;;;5049785;28;20272;-86
2021/07/03 10:11:49;;;;;;;0.63;0.63;;;27.50;99.90;;;;;;5053127;28;20320;-86
2021/07/03 10:14:16;;;;;;;1.10;1.00;;;27.50;99.90;;;;;;5037223;28;20297;-86
2021/07/03 10:16:42;;;;;;;0.50;0.50;;;27.30;99.90;;;;;;5050124;28;20231;-86
2021/07/03 10:19:16;;;;;;;0.60;0.60;;;27.30;99.90;;;;;;5048842;28;20186;-87
2021/07/03 10:21:43;;;;;;;0.60;0.60;;;27.60;99.90;;;;;;5035777;28;20181;-86
2021/07/03 10:24:19;;;;;;;0.40;0.40;;;27.70;99.90;;;;;;5049187;28;20220;-87
2021/07/03 10:26:46;;;;;;;1.13;1.03;;;27.90;99.90;;;;;;5023207;28;20192;-86
2021/07/03 10:29:21;;;;;;;0.63;0.63;;;28.00;99.90;;;;;;5045477;28;20221;-86
2021/07/03 10:31:48;;;;;;;0.80;0.80;;;28.00;99.90;;;;;;5052880;28;20204;-86
2021/07/03 10:34:25;;;;;;;2.73;1.00;;;28.00;99.90;;;;;;5047741;28;20213;-86
2021/07/03 10:37:04;;;;;;;0.80;0.80;;;28.00;99.90;;;;;;5070163;28;20185;-86
2021/07/03 10:39:32;;;;;;;0.57;0.57;;;28.20;99.90;;;;;;5049168;28;20201;-86
2021/07/03 10:41:58;;;;;;;1.10;1.03;;;28.20;99.90;;;;;;5052682;28;20185;-86
2021/07/03 10:44:43;;;;;;;1.33;1.00;;;28.20;99.90;;;;;;5035887;28;20657;-86
2021/07/03 10:47:13;;;;;;;1.27;1.07;;;28.20;99.90;;;;;;5056658;28;20276;-86
2021/07/03 10:49:39;;;;;;;1.37;0.80;;;28.40;99.90;;;;;;5034395;28;20293;-85
2021/07/03 10:52:17;;;;;;;0.90;0.90;;;28.50;99.90;;;;;;5041208;28;20189;-85
2021/07/03 10:54:44;;;;;;;0.77;0.70;;;28.20;99.90;;;;;;5050489;28;20251;-85
2021/07/03 10:57:10;;;;;;;0.87;0.87;;;27.70;99.90;;;;;;5053730;28;20195;-85
2021/07/03 10:59:38;;;;;;;1.27;1.10;;;27.60;99.90;;;;;;5036566;28;20194;-85
2021/07/03 11:02:15;;;;;;;2.07;1.87;;;27.40;99.90;;;;;;5040478;28;20193;-85
2021/07/03 11:04:47;;;;;;;3.20;1.53;;;27.70;99.90;;;;;;5053876;28;20231;-85
2021/07/03 11:07:15;;;;;;;2.00;1.80;;;27.80;99.90;;;;;;5044875;28;20244;-86
2021/07/03 11:09:41;;;;;;;1.77;1.47;;;27.80;99.90;;;;;;5058576;28;20213;-86
2021/07/03 11:12:13;;;;;;;0.93;0.77;;;27.80;99.90;;;;;;5047508;28;20185;-86
2021/07/03 11:14:49;;;;;;;1.23;1.20;;;28.10;99.90;;;;;;5052913;28;20269;-85
2021/07/03 11:17:16;;;;;;;2.10;1.27;;;28.40;99.90;;;;;;5035381;28;20208;-85
2021/07/03 11:19:44;;;;;;;1.20;1.10;;;28.50;99.90;;;;;;5046346;28;20186;-88
2021/07/03 11:22:11;;;;;;;1.43;0.93;;;28.50;99.90;;;;;;5035051;28;20285;-86
2021/07/03 11:24:43;;;;;;;1.77;1.00;;;28.30;99.90;;;;;;5038968;28;20645;-86
2021/07/03 11:27:10;;;;;;;0.97;0.80;;;27.70;99.90;;;;;;5033668;28;20185;-86
2021/07/03 11:29:35;;;;;;;1.13;1.03;;;27.90;99.90;;;;;;5050624;28;20219;-85
2021/07/03 11:32:07;;;;;;;1.47;1.17;;;28.60;99.90;;;;;;5041857;28;20182;-85
2021/07/03 11:34:34;;;;;;;0.73;0.73;;;28.80;99.90;;;;;;5032084;28;20182;-86
2021/07/03 11:36:59;;;;;;;2.33;0.97;;;28.90;99.90;;;;;;5034187;28;20261;-86
2021/07/03 11:39:25;;;;;;;2.20;1.03;;;28.90;99.90;;;;;;5052170;28;20269;-86
2021/07/03 11:42:02;;;;;;;1.00;1.00;;;29.10;99.90;;;;;;5058688;28;20189;-86
2021/07/03 11:44:28;;;;;;;0.77;0.77;;;29.10;99.90;;;;;;5031587;28;20209;-86
2021/07/03 11:46:53;;;;;;;3.25;0.75;;;29.10;99.90;;;;;;5046911;28;20229;-86
2021/07/03 11:49:19;;;;;;;1.53;1.00;;;29.00;99.90;;;;;;5037176;28;20212;-86
2021/07/03 11:51:45;;;;;;;1.07;0.73;;;28.60;99.90;;;;;;5033567;28;20244;-86
2021/07/03 11:54:11;;;;;;;0.50;0.50;;;29.00;99.90;;;;;;5047951;28;20237;-86
2021/07/03 11:56:36;;;;;;;0.65;0.60;;;29.00;99.90;;;;;;5036860;28;20182;-87
2021/07/03 11:59:03;;;;;;;0.73;0.73;;;28.80;99.90;;;;;;5038662;28;20178;-86
2021/07/03 12:01:29;;;;;;;0.68;0.68;;;29.10;99.90;;;;;;5033727;28;20190;-86
2021/07/03 12:03:54;;;;;;;0.65;0.65;;;29.40;99.90;;;;;;5052247;28;20201;-85
2021/07/03 12:06:22;;;;;;;1.60;0.98;;;29.70;99.90;;;;;;5050380;28;20681;-85
2021/07/03 12:08:49;;;;;;;0.85;0.85;;;29.90;99.90;;;;;;5042090;28;20192;-85
2021/07/03 12:11:23;;;;;;;0.57;0.57;;;30.00;99.90;;;;;;5055555;28;20189;-85
2021/07/03 12:13:53;;;;;;;0.60;0.60;;;30.10;99.90;;;;;;5033109;28;20217;-86
2021/07/03 12:16:22;;;;;;;0.60;0.60;;;29.90;99.90;;;;;;5048600;28;20208;-85
2021/07/03 12:18:53;;;;;;;0.88;0.88;;;30.10;99.90;;;;;;5032958;28;20215;-86
2021/07/03 12:21:31;;;;;;;1.52;1.13;;;30.40;99.90;;;;;;5049636;28;20174;-86
2021/07/03 12:24:04;;;;;;;1.02;0.68;;;30.40;99.90;;;;;;5026168;28;20254;-85
2021/07/03 12:26:29;;;;;;;1.33;1.23;;;30.10;99.90;;;;;;5028873;28;20186;-85
2021/07/03 12:29:01;;;;;;;1.20;0.85;;;30.50;99.90;;;;;;5059781;28;20556;-86
2021/07/03 12:31:43;;;;;;;0.63;0.63;;;30.30;99.90;;;;;;5054763;28;20189;-85
2021/07/03 12:34:24;;;;;;;1.10;0.90;;;30.40;99.90;;;;;;5036053;28;20201;-86
2021/07/03 12:37:12;;;;;;;1.60;1.35;;;30.20;99.90;;;;;;5037065;28;20193;-86
2021/07/03 12:39:40;;;;;;;0.60;0.60;;;30.20;99.90;;;;;;5046341;28;20182;-86
2021/07/03 12:42:09;;;;;;;0.70;0.63;;;30.00;99.90;;;;;;5054478;28;20185;-86
2021/07/03 12:44:44;;;;;;;0.70;0.60;;;30.00;99.90;;;;;;5050514;28;20258;-87
2021/07/03 12:47:17;;;;;;;0.45;0.40;;;30.00;99.90;;;;;;5033801;28;20560;-87
2021/07/03 12:49:44;;;;;;;0.63;0.57;;;30.00;99.90;;;;;;5050751;28;20201;-86
2021/07/03 12:52:12;;;;;;;1.05;0.95;;;30.00;99.90;;;;;;5050109;28;20204;-86
2021/07/03 12:54:55;;;;;;;0.57;0.57;;;30.30;99.90;;;;;;5051470;28;20261;-86
2021/07/03 12:57:23;;;;;;;1.08;1.08;;;30.80;99.90;;;;;;5061220;28;20188;-86
2021/07/03 12:59:48;;;;;;;2.17;0.60;;;31.00;99.90;;;;;;5052200;28;20228;-86
2021/07/03 13:02:15;;;;;;;1.30;0.65;;;31.10;99.90;;;;;;5055430;28;20687;-87